Time;durP1;ratioP1;P1;durP2;ratioP2;P2;SDS_P1;SDS_P2;PMS_P1;PMS_P2;Temp;Humidity;BMP_temperature;BMP_pressure;BME280_temperature;BME280_humidity;BME280_pressure;Samples;Min_cycle;Max_cycle;Signal;HPM_P1;HPM_P2
2023/03/07 00:01:29;;;;;;;5.07;1.23;;;34.10;48.10;;;;;;5052571;28;20794;-72
2023/03/07 00:03:58;;;;;;;5.90;1.00;;;34.70;45.70;;;;;;5052282;28;20176;-72
2023/03/07 00:06:25;;;;;;;3.83;1.00;;;34.90;41.50;;;;;;5052936;28;20215;-73
2023/03/07 00:08:55;;;;;;;8.50;1.00;;;34.80;37.00;;;;;;5052362;28;20293;-73
2023/03/07 00:11:23;;;;;;;5.25;0.90;;;34.70;37.60;;;;;;5052334;28;20220;-72
2023/03/07 00:13:51;;;;;;;4.55;1.08;;;35.10;37.90;;;;;;5042640;28;20208;-73
2023/03/07 00:16:21;;;;;;;5.38;0.65;;;34.90;36.10;;;;;;5032443;28;20193;-72
2023/03/07 00:18:50;;;;;;;7.35;0.90;;;35.20;37.20;;;;;;5037793;28;20224;-72
2023/03/07 00:21:20;;;;;;;7.68;0.90;;;35.60;32.30;;;;;;5052571;28;20188;-72
2023/03/07 00:23:50;;;;;;;3.42;0.88;;;35.40;30.00;;;;;;5047210;28;20184;-71
2023/03/07 00:26:21;;;;;;;2.20;0.80;;;35.60;31.30;;;;;;5049827;28;20230;-73
2023/03/07 00:28:51;;;;;;;2.03;0.63;;;35.50;29.60;;;;;;5050863;28;20232;-74
2023/03/07 00:31:20;;;;;;;4.63;0.98;;;34.90;26.00;;;;;;5041109;28;20177;-75
2023/03/07 00:33:48;;;;;;;4.32;0.90;;;35.20;28.20;;;;;;5050297;28;20207;-74
2023/03/07 00:36:19;;;;;;;2.08;0.75;;;35.50;27.20;;;;;;5051591;28;20275;-72
2023/03/07 00:38:47;;;;;;;4.40;0.77;;;35.80;28.00;;;;;;5052497;28;20229;-74
2023/03/07 00:41:20;;;;;;;5.95;0.98;;;36.20;27.20;;;;;;5051047;28;20686;-75
2023/03/07 00:43:48;;;;;;;4.22;1.00;;;35.60;24.70;;;;;;5048540;28;20271;-73
2023/03/07 00:46:18;;;;;;;4.10;0.88;;;36.00;22.90;;;;;;5032196;28;20217;-71
2023/03/07 00:48:46;;;;;;;13.95;1.13;;;36.20;22.10;;;;;;5032213;28;20575;-71
2023/03/07 00:51:17;;;;;;;4.28;0.80;;;36.10;23.30;;;;;;5032251;28;20234;-73
2023/03/07 00:53:45;;;;;;;8.00;0.80;;;36.10;23.00;;;;;;5031830;28;20182;-71
2023/03/07 00:56:20;;;;;;;3.00;0.88;;;36.30;22.60;;;;;;5032032;28;20527;-71
2023/03/07 00:58:48;;;;;;;2.10;0.57;;;37.00;23.20;;;;;;5032164;28;20203;-72
2023/03/07 01:01:19;;;;;;;6.82;0.70;;;36.80;21.30;;;;;;5044491;28;20571;-72
2023/03/07 01:03:54;;;;;;;3.50;1.20;;;37.00;20.00;;;;;;5032869;28;20309;-71
2023/03/07 01:06:25;;;;;;;6.25;1.23;;;36.90;18.70;;;;;;5031824;28;20216;-72
2023/03/07 01:08:56;;;;;;;5.97;1.10;;;36.80;17.80;;;;;;5032032;28;20184;-73
2023/03/07 01:11:25;;;;;;;3.25;1.10;;;36.50;17.30;;;;;;5032079;28;20222;-71
2023/03/07 01:13:56;;;;;;;5.38;1.13;;;36.00;17.30;;;;;;5050278;28;20223;-74
2023/03/07 01:16:26;;;;;;;2.92;0.60;;;36.00;17.10;;;;;;5051943;28;20181;-71
2023/03/07 01:18:57;;;;;;;9.63;1.20;;;35.80;15.70;;;;;;5051642;28;20681;-71
2023/03/07 01:21:28;;;;;;;11.70;1.17;;;36.00;16.10;;;;;;5051015;28;20215;-71
2023/03/07 01:23:56;;;;;;;17.30;1.45;;;36.60;17.20;;;;;;5050998;28;20192;-70
2023/03/07 01:26:26;;;;;;;2.97;0.60;;;36.80;14.60;;;;;;5050678;28;20200;-71
2023/03/07 01:28:56;;;;;;;7.28;1.20;;;36.80;14.10;;;;;;5048180;28;20684;-71
2023/03/07 01:31:25;;;;;;;8.93;0.73;;;36.60;13.80;;;;;;5045208;28;20206;-71
2023/03/07 01:33:53;;;;;;;14.43;1.98;;;36.50;12.70;;;;;;5049520;28;20191;-73
2023/03/07 01:36:29;;;;;;;5.65;1.00;;;36.10;13.00;;;;;;5051732;28;20173;-74
2023/03/07 01:39:01;;;;;;;4.82;1.00;;;36.00;12.80;;;;;;5049361;28;20242;-69
2023/03/07 01:41:31;;;;;;;4.82;1.23;;;35.70;11.20;;;;;;5053502;28;20271;-72
2023/03/07 01:44:01;;;;;;;4.05;1.02;;;35.60;12.30;;;;;;5054900;28;20180;-73
2023/03/07 01:46:43;;;;;;;3.13;0.60;;;35.80;12.60;;;;;;5053741;28;20267;-74
2023/03/07 01:49:28;;;;;;;10.85;1.45;;;36.00;12.60;;;;;;5055564;28;20176;-71
2023/03/07 01:52:05;;;;;;;3.78;0.70;;;36.20;11.90;;;;;;5053770;28;20184;-71
2023/03/07 01:54:37;;;;;;;3.63;0.90;;;36.30;11.60;;;;;;5054586;28;20176;-71
2023/03/07 01:57:05;;;;;;;5.55;1.00;;;36.30;12.30;;;;;;5052824;28;20725;-73
2023/03/07 01:59:36;;;;;;;3.50;0.95;;;36.50;12.40;;;;;;5055434;28;20201;-72
2023/03/07 02:02:10;;;;;;;8.60;1.13;;;36.60;12.10;;;;;;5054123;28;20184;-73
2023/03/07 02:04:57;;;;;;;9.23;1.70;;;36.90;12.10;;;;;;5052794;28;20222;-70
2023/03/07 02:07:30;;;;;;;5.68;0.60;;;37.20;12.40;;;;;;5070191;28;20196;-74
2023/03/07 02:09:59;;;;;;;3.15;0.65;;;37.60;11.70;;;;;;5053549;28;20205;-71
2023/03/07 02:12:28;;;;;;;7.50;0.82;;;37.10;10.40;;;;;;5055351;28;20685;-72
2023/03/07 02:14:56;;;;;;;26.70;1.55;;;36.80;10.70;;;;;;5053221;28;20181;-73
2023/03/07 02:17:24;;;;;;;6.57;1.02;;;37.00;11.40;;;;;;5055024;28;20181;-70
2023/03/07 02:20:04;;;;;;;3.70;0.75;;;37.00;10.20;;;;;;5050853;28;20318;-70
2023/03/07 02:22:32;;;;;;;1.98;0.68;;;37.20;10.10;;;;;;5034808;28;20177;-72
2023/03/07 02:25:28;;;;;;;3.67;0.93;;;37.40;10.60;;;;;;5034727;28;20229;-71
2023/03/07 02:27:58;;;;;;;7.22;1.08;;;38.10;10.70;;;;;;5045075;28;20322;-73
2023/03/07 02:30:29;;;;;;;9.48;1.35;;;38.00;9.90;;;;;;5053290;28;20390;-71
2023/03/07 02:32:57;;;;;;;8.07;1.27;;;37.60;8.90;;;;;;5054585;28;20234;-72
2023/03/07 02:35:26;;;;;;;7.00;1.02;;;37.20;8.90;;;;;;5054546;28;20261;-69
2023/03/07 02:38:00;;;;;;;4.72;1.00;;;37.10;9.40;;;;;;5052994;28;20594;-71
2023/03/07 02:40:30;;;;;;;3.05;0.57;;;37.30;8.50;;;;;;5054215;28;20180;-76
2023/03/07 02:43:04;;;;;;;4.25;0.95;;;37.10;8.40;;;;;;5054482;28;20173;-70
2023/03/07 02:45:32;;;;;;;5.63;1.20;;;37.30;8.80;;;;;;5037199;28;20254;-70
2023/03/07 02:48:00;;;;;;;4.55;0.80;;;37.50;7.60;;;;;;5054256;28;20223;-72
2023/03/07 02:50:28;;;;;;;7.18;1.45;;;37.30;7.60;;;;;;5054207;28;20714;-72
2023/03/07 02:52:55;;;;;;;7.30;0.80;;;37.60;8.70;;;;;;5084453;28;20564;-70
2023/03/07 02:55:23;;;;;;;7.78;1.27;;;37.60;8.30;;;;;;5074291;28;20183;-74
2023/03/07 02:57:52;;;;;;;9.75;1.10;;;37.30;6.50;;;;;;5053243;28;20242;-76
2023/03/07 03:00:20;;;;;;;2.58;0.80;;;36.90;6.90;;;;;;5053218;28;20267;-73
2023/03/07 03:02:48;;;;;;;4.88;0.60;;;36.90;6.50;;;;;;5051233;28;20214;-74
2023/03/07 03:05:16;;;;;;;3.50;0.90;;;36.90;7.00;;;;;;5032855;28;20247;-75
2023/03/07 03:07:44;;;;;;;1.42;0.57;;;37.30;6.10;;;;;;5041376;28;20195;-71
2023/03/07 03:10:12;;;;;;;5.28;0.60;;;37.40;5.10;;;;;;5053316;28;20279;-71
2023/03/07 03:12:39;;;;;;;5.15;0.90;;;37.40;6.10;;;;;;5052769;28;20184;-71
2023/03/07 03:15:08;;;;;;;4.38;1.00;;;37.20;6.10;;;;;;5052599;28;20192;-72
2023/03/07 03:17:36;;;;;;;3.88;0.90;;;37.30;5.40;;;;;;5053637;28;20243;-71
2023/03/07 03:20:10;;;;;;;11.40;1.20;;;37.00;5.10;;;;;;5053403;28;20225;-70
2023/03/07 03:22:41;;;;;;;8.80;1.13;;;37.00;5.40;;;;;;5055593;28;20219;-72
2023/03/07 03:25:11;;;;;;;1.95;0.65;;;37.50;6.40;;;;;;5053082;28;20621;-71
2023/03/07 03:27:40;;;;;;;6.28;0.70;;;37.50;5.70;;;;;;5052038;28;20204;-71
2023/03/07 03:30:10;;;;;;;8.05;0.63;;;37.20;4.20;;;;;;5053480;28;20263;-71
2023/03/07 03:32:39;;;;;;;4.05;0.68;;;37.10;5.50;;;;;;5051139;28;20192;-70
2023/03/07 03:35:07;;;;;;;2.38;0.85;;;37.10;4.50;;;;;;5049971;28;20180;-70
2023/03/07 03:37:35;;;;;;;8.23;1.45;;;37.40;5.30;;;;;;5053078;28;20537;-72
2023/03/07 03:40:12;;;;;;;6.35;0.93;;;37.50;5.60;;;;;;5053256;28;20181;-71
2023/03/07 03:42:44;;;;;;;4.60;0.63;;;37.50;4.50;;;;;;5048100;28;20185;-69
2023/03/07 03:45:16;;;;;;;3.33;1.00;;;37.70;4.00;;;;;;5033384;28;20263;-71
2023/03/07 03:47:44;;;;;;;2.50;0.57;;;38.00;4.50;;;;;;5045122;28;20662;-71
2023/03/07 03:50:12;;;;;;;16.08;1.38;;;37.70;3.00;;;;;;5052108;28;21297;-72
2023/03/07 03:52:39;;;;;;;2.75;0.70;;;37.20;3.70;;;;;;5051305;28;20220;-70
2023/03/07 03:55:08;;;;;;;5.63;0.70;;;37.20;5.20;;;;;;5051610;28;20184;-74
2023/03/07 03:57:35;;;;;;;4.13;0.80;;;37.00;4.30;;;;;;5053172;28;20198;-74
2023/03/07 04:00:04;;;;;;;4.28;0.98;;;37.10;3.90;;;;;;5052124;28;20180;-73
2023/03/07 04:02:32;;;;;;;4.38;0.90;;;37.30;5.80;;;;;;5050666;28;20207;-73
2023/03/07 04:05:00;;;;;;;3.85;0.73;;;37.40;4.10;;;;;;5047536;28;20199;-73
2023/03/07 04:07:29;;;;;;;4.95;0.82;;;37.30;3.10;;;;;;5052907;28;20717;-73
2023/03/07 04:09:56;;;;;;;7.38;1.23;;;36.90;3.20;;;;;;5050142;28;20532;-73
2023/03/07 04:12:24;;;;;;;13.32;1.40;;;36.90;3.50;;;;;;5051987;28;20199;-73
2023/03/07 04:14:52;;;;;;;6.47;0.98;;;36.50;2.10;;;;;;5050142;28;20173;-72
2023/03/07 04:17:20;;;;;;;1.23;0.50;;;36.60;3.40;;;;;;5051447;28;20275;-73
2023/03/07 04:19:48;;;;;;;3.33;0.73;;;36.70;3.60;;;;;;5051792;28;20303;-73
2023/03/07 04:22:15;;;;;;;6.78;0.90;;;36.80;2.30;;;;;;5052408;28;20618;-73
2023/03/07 04:24:44;;;;;;;9.32;1.20;;;37.20;3.50;;;;;;5052370;28;20699;-72
2023/03/07 04:27:11;;;;;;;4.63;0.80;;;36.90;3.00;;;;;;5050840;28;20184;-72
2023/03/07 04:29:38;;;;;;;3.88;0.95;;;37.10;2.80;;;;;;5050343;28;20184;-72
2023/03/07 04:32:06;;;;;;;2.40;0.60;;;36.90;2.50;;;;;;5052334;28;20185;-73
2023/03/07 04:34:33;;;;;;;2.63;0.55;;;36.90;2.10;;;;;;5052419;28;20219;-73
2023/03/07 04:37:00;;;;;;;4.10;0.80;;;36.90;3.30;;;;;;5051293;28;20662;-73
2023/03/07 04:39:28;;;;;;;3.53;0.80;;;37.10;2.80;;;;;;5052295;28;20672;-74
2023/03/07 04:41:55;;;;;;;3.92;0.88;;;37.00;2.40;;;;;;5052281;28;20724;-74
2023/03/07 04:44:23;;;;;;;3.80;0.73;;;37.10;2.90;;;;;;5049123;28;20603;-73
2023/03/07 04:46:50;;;;;;;1.90;0.55;;;37.20;2.60;;;;;;5051173;28;20224;-73
2023/03/07 04:49:17;;;;;;;2.92;0.50;;;37.20;2.50;;;;;;5051322;28;20203;-73
2023/03/07 04:51:45;;;;;;;4.35;0.98;;;37.30;2.00;;;;;;5050162;28;20181;-71
2023/03/07 04:54:12;;;;;;;3.20;0.77;;;37.40;2.10;;;;;;5050214;28;20184;-72
2023/03/07 04:56:39;;;;;;;2.95;0.70;;;37.50;1.00;;;;;;5049786;28;20192;-71
2023/03/07 04:59:07;;;;;;;6.72;1.00;;;37.50;2.50;;;;;;5051901;28;20207;-72
2023/03/07 05:01:34;;;;;;;9.18;0.95;;;37.40;1.60;;;;;;5051971;28;20169;-71
2023/03/07 05:04:01;;;;;;;4.93;1.05;;;37.60;2.20;;;;;;5050937;28;20184;-71
2023/03/07 05:06:29;;;;;;;6.13;0.90;;;37.70;1.00;;;;;;5050851;28;20223;-72
2023/03/07 05:08:56;;;;;;;6.22;0.73;;;37.60;1.00;;;;;;5049875;28;20611;-70
2023/03/07 05:11:24;;;;;;;1.90;0.73;;;37.70;1.00;;;;;;5049553;28;20223;-71
2023/03/07 05:13:54;;;;;;;3.35;0.90;;;37.70;1.00;;;;;;5050272;28;20189;-72
2023/03/07 05:16:21;;;;;;;2.28;0.80;;;37.70;1.10;;;;;;5033425;28;21185;-71
2023/03/07 05:18:49;;;;;;;3.00;1.13;;;37.50;1.00;;;;;;5050624;28;20228;-72
2023/03/07 05:21:16;;;;;;;2.20;0.60;;;37.70;1.00;;;;;;5050690;28;20689;-71
2023/03/07 05:23:43;;;;;;;1.75;0.52;;;37.40;1.00;;;;;;5051626;28;20622;-72
2023/03/07 05:26:11;;;;;;;2.67;0.57;;;37.30;1.00;;;;;;5050464;28;20693;-72
2023/03/07 05:28:38;;;;;;;5.07;0.70;;;37.30;1.00;;;;;;5050701;28;20220;-71
2023/03/07 05:31:06;;;;;;;2.30;0.60;;;37.20;1.00;;;;;;5051709;28;20185;-72
2023/03/07 05:33:33;;;;;;;6.03;0.77;;;37.30;1.00;;;;;;5049762;28;20184;-72
2023/03/07 05:36:02;;;;;;;3.25;0.60;;;37.40;1.00;;;;;;5051374;28;20267;-72
2023/03/07 05:38:29;;;;;;;4.50;0.80;;;37.40;1.00;;;;;;5049180;28;20189;-72
2023/03/07 05:40:57;;;;;;;2.45;0.65;;;37.20;1.00;;;;;;5051416;28;20229;-72
2023/03/07 05:43:24;;;;;;;5.20;0.55;;;37.30;1.00;;;;;;5051560;28;20555;-72
2023/03/07 05:45:52;;;;;;;3.15;0.80;;;37.10;1.00;;;;;;5050461;28;20209;-72
2023/03/07 05:48:19;;;;;;;1.60;0.90;;;37.00;1.00;;;;;;5049703;28;20573;-72
2023/03/07 05:50:47;;;;;;;2.28;0.47;;;36.90;1.00;;;;;;5051359;28;20180;-72
2023/03/07 05:53:14;;;;;;;4.03;0.60;;;36.80;1.00;;;;;;5051311;28;20258;-72
2023/03/07 05:55:41;;;;;;;4.95;0.85;;;36.60;1.00;;;;;;5051211;28;20177;-72
2023/03/07 05:58:09;;;;;;;1.45;0.65;;;36.60;1.00;;;;;;5049647;28;20180;-72
2023/03/07 06:00:36;;;;;;;2.92;0.73;;;36.50;1.00;;;;;;5050245;28;20264;-72
2023/03/07 06:03:04;;;;;;;4.32;0.63;;;36.60;1.00;;;;;;5051324;28;20700;-72
2023/03/07 06:05:32;;;;;;;8.20;0.52;;;36.50;1.00;;;;;;5049710;28;20217;-72
2023/03/07 06:07:59;;;;;;;4.07;0.70;;;36.40;1.00;;;;;;5048573;28;20261;-72
2023/03/07 06:10:26;;;;;;;3.83;0.90;;;36.30;1.00;;;;;;5051052;28;20181;-71
2023/03/07 06:12:55;;;;;;;6.28;1.05;;;36.40;1.00;;;;;;5050904;28;20529;-70
2023/03/07 06:15:23;;;;;;;6.00;0.98;;;36.50;1.00;;;;;;5050988;28;20184;-72
2023/03/07 06:17:51;;;;;;;1.50;0.50;;;36.50;1.00;;;;;;5050042;28;20195;-72
2023/03/07 06:20:22;;;;;;;2.40;0.60;;;36.60;1.00;;;;;;5049970;28;20236;-72
2023/03/07 06:22:49;;;;;;;2.95;0.68;;;36.70;1.00;;;;;;5051050;28;20662;-72
2023/03/07 06:25:20;;;;;;;2.22;0.80;;;36.70;1.00;;;;;;5050286;28;20209;-71
2023/03/07 06:27:48;;;;;;;5.97;0.60;;;36.70;1.00;;;;;;5051177;28;20199;-72
2023/03/07 06:30:16;;;;;;;2.28;0.40;;;36.80;1.00;;;;;;5054291;28;20184;-72
2023/03/07 06:32:43;;;;;;;1.80;0.60;;;36.80;1.00;;;;;;5053291;28;20291;-72
2023/03/07 06:35:11;;;;;;;4.32;0.60;;;36.80;1.00;;;;;;5053863;28;20231;-72
2023/03/07 06:37:38;;;;;;;3.67;0.57;;;36.60;1.00;;;;;;5052883;28;20185;-71
2023/03/07 06:40:08;;;;;;;1.10;0.40;;;36.60;1.00;;;;;;5052592;28;20184;-72
2023/03/07 06:42:36;;;;;;;1.77;0.50;;;36.60;1.00;;;;;;5045596;28;20522;-71
2023/03/07 06:45:03;;;;;;;1.80;0.63;;;36.70;1.00;;;;;;5053755;28;20213;-71
2023/03/07 06:47:31;;;;;;;4.03;1.50;;;36.70;1.00;;;;;;5051831;28;20938;-71
2023/03/07 06:49:58;;;;;;;4.07;1.27;;;36.70;6.20;;;;;;5052174;28;20197;-71
2023/03/07 06:52:26;;;;;;;6.78;1.73;;;35.90;21.90;;;;;;5053751;28;20238;-71
2023/03/07 06:54:53;;;;;;;8.10;1.70;;;35.30;28.30;;;;;;5052869;28;20177;-71
2023/03/07 06:57:20;;;;;;;4.85;1.30;;;34.70;37.90;;;;;;5052640;28;20176;-71
2023/03/07 06:59:48;;;;;;;7.50;1.38;;;34.10;44.10;;;;;;5052229;28;20176;-71
2023/03/07 07:02:15;;;;;;;5.68;1.30;;;34.00;47.90;;;;;;5050460;28;20267;-71
2023/03/07 07:04:43;;;;;;;4.10;1.30;;;33.90;51.30;;;;;;5052012;28;20185;-72
2023/03/07 07:07:10;;;;;;;11.95;2.13;;;33.70;54.80;;;;;;5048961;28;20217;-72
2023/03/07 07:09:37;;;;;;;11.07;1.60;;;33.60;57.70;;;;;;5037230;28;20191;-72
2023/03/07 07:12:05;;;;;;;5.47;2.00;;;33.60;59.80;;;;;;5050828;28;20185;-72
2023/03/07 07:14:33;;;;;;;10.68;2.10;;;33.40;62.80;;;;;;5050237;28;20272;-72
2023/03/07 07:17:01;;;;;;;7.88;1.83;;;33.20;67.90;;;;;;5046047;28;20181;-72
2023/03/07 07:19:28;;;;;;;6.03;1.35;;;32.90;73.30;;;;;;5050004;28;20243;-72
2023/03/07 07:21:56;;;;;;;5.97;1.50;;;32.80;78.90;;;;;;5051286;28;20216;-71
2023/03/07 07:24:23;;;;;;;10.23;2.13;;;32.50;84.10;;;;;;5053366;28;20219;-72
2023/03/07 07:26:51;;;;;;;8.15;2.10;;;32.20;85.20;;;;;;5053051;28;20208;-72
2023/03/07 07:29:19;;;;;;;11.00;2.28;;;31.90;88.90;;;;;;5052913;28;20173;-72
2023/03/07 07:31:48;;;;;;;6.38;1.58;;;31.60;92.20;;;;;;5036344;28;20192;-72
2023/03/07 07:34:15;;;;;;;4.38;1.50;;;31.30;96.90;;;;;;5032877;28;20273;-72
2023/03/07 07:36:43;;;;;;;11.63;2.15;;;31.00;99.90;;;;;;5043426;28;20177;-72
2023/03/07 07:39:10;;;;;;;9.02;1.77;;;30.80;99.90;;;;;;5052210;28;20609;-72
2023/03/07 07:41:38;;;;;;;7.32;1.70;;;30.70;99.90;;;;;;5052068;28;20250;-72
2023/03/07 07:44:05;;;;;;;14.70;1.90;;;30.60;99.90;;;;;;5052775;28;20239;-72
2023/03/07 07:46:33;;;;;;;7.57;1.95;;;30.50;99.90;;;;;;5052398;28;20216;-71
2023/03/07 07:49:00;;;;;;;10.88;1.98;;;30.30;99.90;;;;;;5042371;28;20188;-72
2023/03/07 07:51:27;;;;;;;7.47;1.58;;;30.20;99.90;;;;;;5049213;28;20271;-72
2023/03/07 07:53:55;;;;;;;5.00;1.90;;;30.10;99.90;;;;;;5047142;28;20192;-72
2023/03/07 07:56:22;;;;;;;11.23;2.15;;;29.90;99.90;;;;;;5051989;28;20614;-72
2023/03/07 07:58:49;;;;;;;10.83;2.07;;;29.70;99.90;;;;;;5052627;28;20717;-71
2023/03/07 08:01:19;;;;;;;15.00;2.33;;;29.50;99.90;;;;;;5036394;28;20699;-72
2023/03/07 08:03:47;;;;;;;10.20;2.00;;;29.30;99.90;;;;;;5032507;28;20225;-72
2023/03/07 08:06:19;;;;;;;13.83;3.00;;;29.10;99.90;;;;;;5037340;28;20208;-72
2023/03/07 08:08:48;;;;;;;7.87;2.37;;;28.90;99.90;;;;;;5052267;28;20168;-71
2023/03/07 08:11:16;;;;;;;8.27;2.20;;;28.80;99.90;;;;;;5050545;28;20204;-72
2023/03/07 08:13:44;;;;;;;10.27;2.37;;;28.70;99.90;;;;;;5049572;28;20277;-73
2023/03/07 08:16:13;;;;;;;8.60;2.20;;;28.70;99.90;;;;;;5047369;28;20220;-72
2023/03/07 08:18:41;;;;;;;11.97;2.83;;;28.60;99.90;;;;;;5037180;28;20307;-71
2023/03/07 08:21:09;;;;;;;6.70;2.20;;;28.40;99.90;;;;;;5050269;28;20290;-70
2023/03/07 08:23:37;;;;;;;11.27;2.87;;;28.30;99.90;;;;;;5051385;28;20189;-72
2023/03/07 08:26:06;;;;;;;14.60;2.90;;;28.20;99.90;;;;;;5049704;28;20690;-72
2023/03/07 08:28:33;;;;;;;15.97;2.17;;;28.10;99.90;;;;;;5051794;28;20607;-72
2023/03/07 08:31:12;;;;;;;17.60;2.30;;;28.10;99.90;;;;;;5040711;28;20205;-71
2023/03/07 08:33:39;;;;;;;7.73;2.03;;;28.00;99.90;;;;;;5047534;28;20193;-72
2023/03/07 08:36:07;;;;;;;12.50;2.63;;;27.90;99.90;;;;;;5051674;28;20188;-71
2023/03/07 08:38:35;;;;;;;14.57;3.10;;;27.80;99.90;;;;;;5051496;28;20259;-72
2023/03/07 08:41:05;;;;;;;8.17;2.13;;;27.80;99.90;;;;;;5051649;28;20226;-72
2023/03/07 08:43:35;;;;;;;16.00;3.27;;;27.70;99.90;;;;;;5050606;28;20188;-72
2023/03/07 08:46:03;;;;;;;12.60;2.57;;;27.60;99.90;;;;;;5051373;28;20208;-72
2023/03/07 08:48:30;;;;;;;8.13;2.40;;;27.50;99.90;;;;;;5049543;28;20185;-72
2023/03/07 08:51:03;;;;;;;8.47;2.60;;;27.50;99.90;;;;;;5045361;28;20302;-72
2023/03/07 08:53:30;;;;;;;11.83;3.20;;;27.40;99.90;;;;;;5051569;28;20883;-72
2023/03/07 08:55:58;;;;;;;21.50;2.90;;;27.40;99.90;;;;;;5049644;28;20188;-72
2023/03/07 08:58:25;;;;;;;12.87;2.63;;;27.30;99.90;;;;;;5049765;28;20180;-71
2023/03/07 09:00:52;;;;;;;8.23;2.50;;;27.30;99.90;;;;;;5051439;28;20658;-72
2023/03/07 09:03:20;;;;;;;8.87;2.20;;;27.20;99.90;;;;;;5049230;28;20699;-73
2023/03/07 09:05:47;;;;;;;11.83;2.27;;;27.10;99.90;;;;;;5031244;28;20209;-73
2023/03/07 09:08:15;;;;;;;17.87;2.63;;;27.10;99.90;;;;;;5033489;28;20178;-72
2023/03/07 09:10:42;;;;;;;16.57;2.50;;;27.00;99.90;;;;;;5051229;28;20180;-72
2023/03/07 09:13:10;;;;;;;14.03;2.67;;;26.90;99.90;;;;;;5050404;28;20409;-73
2023/03/07 09:15:41;;;;;;;11.60;3.23;;;26.90;99.90;;;;;;5051189;28;20176;-72
2023/03/07 09:18:09;;;;;;;13.63;2.93;;;26.80;99.90;;;;;;5050102;28;20555;-73
2023/03/07 09:20:39;;;;;;;14.70;3.07;;;26.70;99.90;;;;;;5051524;28;20238;-72
2023/03/07 09:23:07;;;;;;;8.47;2.00;;;26.60;99.90;;;;;;5051028;28;20547;-73
2023/03/07 09:28:57;;;;;;;16.47;2.80;;;26.40;99.90;;;;;;5034522;28;20188;-73
2023/03/07 09:31:24;;;;;;;9.37;2.60;;;26.40;99.90;;;;;;5051209;28;20176;-73
2023/03/07 09:33:52;;;;;;;9.53;2.30;;;26.30;99.90;;;;;;5048717;28;20176;-72
2023/03/07 09:36:20;;;;;;;6.37;2.00;;;26.30;99.90;;;;;;5031036;28;20186;-72
2023/03/07 09:38:48;;;;;;;12.90;2.53;;;26.20;99.90;;;;;;5034887;28;20506;-73
2023/03/07 09:41:21;;;;;;;11.33;2.70;;;26.20;99.90;;;;;;5050693;28;20180;-71
2023/03/07 09:44:17;;;;;;;10.47;2.47;;;26.20;99.90;;;;;;5049647;28;20214;-72
2023/03/07 09:47:10;;;;;;;13.07;2.70;;;26.10;99.90;;;;;;5045749;28;20286;-72
2023/03/07 09:49:46;;;;;;;13.63;2.53;;;26.00;99.90;;;;;;5048662;28;20219;-72
2023/03/07 09:52:19;;;;;;;11.90;2.60;;;25.90;99.90;;;;;;5051189;28;20183;-72
2023/03/07 09:54:59;;;;;;;16.33;3.90;;;25.90;99.90;;;;;;5050972;28;20188;-72
2023/03/07 09:57:33;;;;;;;12.30;3.43;;;25.80;99.90;;;;;;5051013;28;20211;-73
2023/03/07 10:00:18;;;;;;;13.63;3.20;;;25.80;99.90;;;;;;5038126;28;20587;-73
2023/03/07 10:03:12;;;;;;;7.40;2.27;;;25.90;99.90;;;;;;5043729;28;20281;-72
2023/03/07 10:05:47;;;;;;;11.47;3.20;;;25.90;99.90;;;;;;5054117;28;20216;-72
2023/03/07 10:08:31;;;;;;;11.67;3.10;;;25.90;99.90;;;;;;5054794;28;20309;-72
2023/03/07 10:11:08;;;;;;;13.63;3.27;;;25.90;99.90;;;;;;5052937;28;20199;-71
2023/03/07 10:13:41;;;;;;;11.80;3.27;;;25.80;99.90;;;;;;5052728;28;20226;-70
2023/03/07 10:16:36;;;;;;;12.43;2.93;;;25.70;99.90;;;;;;5052585;28;20678;-72
2023/03/07 10:19:15;;;;;;;10.47;3.33;;;25.50;99.90;;;;;;5054053;28;20228;-72
2023/03/07 10:22:04;;;;;;;7.67;3.07;;;25.40;99.90;;;;;;5051771;28;20243;-72
2023/03/07 10:24:47;;;;;;;14.33;3.03;;;25.40;99.90;;;;;;5035037;28;20261;-72
2023/03/07 10:27:15;;;;;;;9.17;3.03;;;25.30;99.90;;;;;;5045414;28;20278;-72
2023/03/07 10:29:49;;;;;;;15.60;3.80;;;25.30;99.90;;;;;;5054484;28;20176;-73
2023/03/07 10:32:32;;;;;;;11.70;3.50;;;25.20;99.90;;;;;;5053619;28;20182;-72
2023/03/07 10:35:23;;;;;;;19.53;3.63;;;25.20;99.90;;;;;;5054794;28;20184;-71
2023/03/07 10:38:25;;;;;;;15.53;3.50;;;25.10;99.90;;;;;;5055003;28;20654;-71
2023/03/07 10:41:21;;;;;;;12.37;3.10;;;25.00;99.90;;;;;;5045036;28;20196;-72
2023/03/07 10:43:51;;;;;;;14.67;3.43;;;24.90;99.90;;;;;;5054703;28;20223;-71
2023/03/07 10:46:21;;;;;;;14.43;3.50;;;24.80;99.90;;;;;;5056225;28;20211;-72
2023/03/07 10:49:00;;;;;;;11.97;3.00;;;24.70;99.90;;;;;;5055367;28;20184;-72
2023/03/07 10:51:49;;;;;;;13.30;3.23;;;24.60;99.90;;;;;;5055821;28;20173;-71
2023/03/07 10:54:27;;;;;;;19.17;4.97;;;24.40;99.90;;;;;;5054811;28;20188;-71
2023/03/07 10:57:05;;;;;;;16.83;4.93;;;24.40;99.90;;;;;;5055153;28;20207;-73
2023/03/07 10:59:33;;;;;;;18.97;5.17;;;24.30;99.90;;;;;;5054842;28;20184;-73
2023/03/07 11:02:04;;;;;;;18.37;4.50;;;24.10;99.90;;;;;;5054473;28;20184;-72
2023/03/07 11:04:45;;;;;;;13.00;3.47;;;24.00;99.90;;;;;;5055055;28;20664;-71
2023/03/07 11:07:29;;;;;;;14.23;4.33;;;24.00;99.90;;;;;;5054570;28;20215;-72
2023/03/07 11:09:58;;;;;;;16.37;3.77;;;23.90;99.90;;;;;;5054799;28;20173;-71
2023/03/07 11:12:28;;;;;;;14.10;3.43;;;23.90;99.90;;;;;;5053589;28;20578;-72
2023/03/07 11:15:23;;;;;;;11.73;3.10;;;23.90;99.90;;;;;;5054455;28;20204;-72
2023/03/07 11:17:52;;;;;;;10.97;3.07;;;23.90;99.90;;;;;;5041774;28;20194;-72
2023/03/07 11:20:25;;;;;;;12.17;3.27;;;23.90;99.90;;;;;;5034137;28;20229;-72
2023/03/07 11:23:30;;;;;;;11.57;3.03;;;24.00;99.90;;;;;;5052709;28;20191;-71
2023/03/07 11:26:15;;;;;;;14.97;3.13;;;24.00;99.90;;;;;;5054294;28;20215;-72
2023/03/07 11:28:43;;;;;;;15.33;3.60;;;23.90;99.90;;;;;;5053479;28;20188;-72
2023/03/07 11:31:19;;;;;;;14.30;3.17;;;23.80;99.90;;;;;;5053467;28;20185;-72
2023/03/07 11:34:24;;;;;;;17.13;3.53;;;23.70;99.90;;;;;;5054327;28;20210;-72
2023/03/07 11:37:01;;;;;;;10.60;3.60;;;23.50;99.90;;;;;;5011962;28;20177;-72
2023/03/07 11:39:36;;;;;;;9.63;2.83;;;23.50;99.90;;;;;;5033134;28;20207;-71
2023/03/07 11:42:21;;;;;;;9.00;3.33;;;23.50;99.90;;;;;;5046934;28;20196;-71
2023/03/07 11:45:39;;;;;;;17.93;3.53;;;23.40;99.90;;;;;;5054025;28;20638;-72
2023/03/07 11:48:31;;;;;;;8.77;2.90;;;23.40;99.90;;;;;;5011033;28;20198;-72
2023/03/07 11:51:02;;;;;;;13.80;3.10;;;23.20;99.90;;;;;;5011449;28;20193;-71
2023/03/07 11:53:48;;;;;;;11.70;2.90;;;23.20;99.90;;;;;;5026590;28;20232;-72
2023/03/07 11:56:21;;;;;;;9.37;2.80;;;23.10;99.90;;;;;;5034378;28;20243;-72
2023/03/07 11:59:25;;;;;;;10.53;2.77;;;23.00;99.90;;;;;;5033987;28;20177;-72
2023/03/07 12:02:06;;;;;;;12.10;3.03;;;22.90;99.90;;;;;;5052814;28;20187;-71
2023/03/07 12:05:11;;;;;;;12.23;3.00;;;22.80;99.90;;;;;;5034006;28;20177;-71
2023/03/07 12:07:56;;;;;;;13.33;2.80;;;22.60;99.90;;;;;;5040252;28;20191;-71
2023/03/07 12:11:02;;;;;;;12.63;2.70;;;22.60;99.90;;;;;;5033673;28;20541;-72
2023/03/07 12:14:02;;;;;;;8.13;2.80;;;22.50;99.90;;;;;;5032618;28;20212;-72
2023/03/07 12:16:48;;;;;;;10.13;3.23;;;22.40;99.90;;;;;;5039822;28;20671;-72
2023/03/07 12:19:49;;;;;;;11.53;3.10;;;22.40;99.90;;;;;;5048284;28;20227;-71
2023/03/07 12:22:48;;;;;;;10.90;3.20;;;22.40;99.90;;;;;;5052738;28;20168;-72
2023/03/07 12:25:28;;;;;;;10.80;2.97;;;22.20;99.90;;;;;;5045545;28;20195;-72
2023/03/07 12:28:27;;;;;;;13.17;3.47;;;22.20;99.90;;;;;;5049046;28;20188;-72
2023/03/07 12:30:54;;;;;;;13.80;2.77;;;22.20;99.90;;;;;;5049799;28;20219;-72
2023/03/07 12:33:52;;;;;;;10.63;3.70;;;22.10;99.90;;;;;;5049676;28;20192;-72
2023/03/07 12:36:42;;;;;;;11.70;3.23;;;22.00;99.90;;;;;;5052001;28;20214;-72
2023/03/07 12:39:46;;;;;;;9.50;3.07;;;22.00;99.90;;;;;;5046110;28;20223;-72
2023/03/07 12:42:35;;;;;;;14.17;3.23;;;21.90;99.90;;;;;;5049154;28;20560;-72
2023/03/07 12:45:10;;;;;;;18.83;4.40;;;21.80;99.90;;;;;;5048269;28;20677;-73
2023/03/07 12:47:43;;;;;;;11.17;3.47;;;21.80;99.90;;;;;;5050566;28;20192;-73
2023/03/07 12:50:38;;;;;;;16.23;3.70;;;21.70;99.90;;;;;;5052039;28;20180;-71
2023/03/07 12:53:05;;;;;;;10.30;2.90;;;21.50;99.90;;;;;;5046978;28;20189;-72
2023/03/07 12:55:39;;;;;;;10.30;3.73;;;21.50;99.90;;;;;;5065617;28;20263;-72
2023/03/07 12:58:24;;;;;;;12.37;3.13;;;21.50;99.90;;;;;;5049556;28;20191;-71
2023/03/07 13:01:17;;;;;;;10.00;3.23;;;21.40;99.90;;;;;;5051864;28;20609;-72
2023/03/07 13:04:04;;;;;;;11.70;2.93;;;21.40;99.90;;;;;;5047947;28;20599;-73
2023/03/07 13:06:32;;;;;;;12.67;3.53;;;21.40;99.90;;;;;;5050469;28;20211;-73
2023/03/07 13:09:02;;;;;;;7.63;2.30;;;21.40;99.90;;;;;;5050903;28;20173;-72
2023/03/07 13:11:33;;;;;;;9.30;2.57;;;21.40;99.90;;;;;;5038317;28;20195;-72
2023/03/07 13:14:04;;;;;;;10.27;2.93;;;21.30;99.90;;;;;;5052682;28;20180;-72
2023/03/07 13:16:33;;;;;;;8.47;2.63;;;21.30;99.90;;;;;;5051754;28;20183;-72